sensor_id;sensor_type;location;lat;lon;timestamp;temperature;humidity
82782;DHT22;72517;47.260;11.422;2024-03-02T00:00:07;8.60;99.90
82782;DHT22;72517;47.260;11.422;2024-03-02T00:02:44;8.70;99.90
82782;DHT22;72517;47.260;11.422;2024-03-02T00:05:13;8.70;99.90
82782;DHT22;72517;47.260;11.422;2024-03-02T00:07:47;8.70;99.90
82782;DHT22;72517;47.260;11.422;2024-03-02T00:10:20;8.70;99.90
82782;DHT22;72517;47.260;11.422;2024-03-02T00:12:51;8.70;99.90
82782;DHT22;72517;47.260;11.422;2024-03-02T00:18:04;8.70;99.90
82782;DHT22;72517;47.260;11.422;2024-03-02T00:20:31;8.70;99.90
82782;DHT22;72517;47.260;11.422;2024-03-02T00:23:06;8.80;99.90
82782;DHT22;72517;47.260;11.422;2024-03-02T00:25:43;8.80;99.90
82782;DHT22;72517;47.260;11.422;2024-03-02T00:28:17;8.70;99.90
82782;DHT22;72517;47.260;11.422;2024-03-02T00:33:33;8.70;99.90
82782;DHT22;72517;47.260;11.422;2024-03-02T00:36:00;8.70;99.90
82782;DHT22;72517;47.260;11.422;2024-03-02T00:38:29;8.60;99.90
82782;DHT22;72517;47.260;11.422;2024-03-02T00:40:58;8.60;99.90
82782;DHT22;72517;47.260;11.422;2024-03-02T00:45:57;8.60;99.90
82782;DHT22;72517;47.260;11.422;2024-03-02T00:48:24;8.60;99.90
82782;DHT22;72517;47.260;11.422;2024-03-02T00:50:54;8.60;99.90
82782;DHT22;72517;47.260;11.422;2024-03-02T00:53:23;8.60;99.90
82782;DHT22;72517;47.260;11.422;2024-03-02T00:55:53;8.60;99.90
82782;DHT22;72517;47.260;11.422;2024-03-02T00:58:20;8.50;99.90
82782;DHT22;72517;47.260;11.422;2024-03-02T01:00:47;8.50;99.90
82782;DHT22;72517;47.260;11.422;2024-03-02T01:03:14;8.50;99.90
82782;DHT22;72517;47.260;11.422;2024-03-02T01:05:42;8.50;99.90
82782;DHT22;72517;47.260;11.422;2024-03-02T01:08:11;8.60;99.90
82782;DHT22;72517;47.260;11.422;2024-03-02T01:10:38;8.60;99.90
82782;DHT22;72517;47.260;11.422;2024-03-02T01:13:05;8.50;99.90
82782;DHT22;72517;47.260;11.422;2024-03-02T01:15:33;8.50;99.90
82782;DHT22;72517;47.260;11.422;2024-03-02T01:18:00;8.50;99.90
82782;DHT22;72517;47.260;11.422;2024-03-02T01:20:27;8.50;99.90
82782;DHT22;72517;47.260;11.422;2024-03-02T01:22:54;8.50;99.90
82782;DHT22;72517;47.260;11.422;2024-03-02T01:25:21;8.50;99.90
82782;DHT22;72517;47.260;11.422;2024-03-02T01:27:48;8.40;99.90
82782;DHT22;72517;47.260;11.422;2024-03-02T01:30:15;8.40;99.90
82782;DHT22;72517;47.260;11.422;2024-03-02T01:32:41;8.40;99.90
82782;DHT22;72517;47.260;11.422;2024-03-02T01:35:08;8.30;99.90
82782;DHT22;72517;47.260;11.422;2024-03-02T01:37:35;8.30;99.90
82782;DHT22;72517;47.260;11.422;2024-03-02T01:40:02;8.30;99.90
82782;DHT22;72517;47.260;11.422;2024-03-02T01:42:35;8.30;99.90
82782;DHT22;72517;47.260;11.422;2024-03-02T01:45:07;8.30;99.90
82782;DHT22;72517;47.260;11.422;2024-03-02T01:47:35;8.20;99.90
82782;DHT22;72517;47.260;11.422;2024-03-02T01:50:02;8.20;99.90
82782;DHT22;72517;47.260;11.422;2024-03-02T01:52:29;8.20;99.90
82782;DHT22;72517;47.260;11.422;2024-03-02T01:54:56;8.20;99.90
82782;DHT22;72517;47.260;11.422;2024-03-02T01:57:23;8.20;99.90
82782;DHT22;72517;47.260;11.422;2024-03-02T01:59:50;8.20;99.90
82782;DHT22;72517;47.260;11.422;2024-03-02T02:02:17;8.30;99.90
82782;DHT22;72517;47.260;11.422;2024-03-02T02:04:44;8.30;99.90
82782;DHT22;72517;47.260;11.422;2024-03-02T02:07:11;8.30;99.90
82782;DHT22;72517;47.260;11.422;2024-03-02T02:09:41;8.30;99.90
82782;DHT22;72517;47.260;11.422;2024-03-02T02:12:09;8.40;99.90
82782;DHT22;72517;47.260;11.422;2024-03-02T02:14:36;8.40;99.90
82782;DHT22;72517;47.260;11.422;2024-03-02T02:17:05;8.40;99.90
82782;DHT22;72517;47.260;11.422;2024-03-02T02:19:32;8.30;99.90
82782;DHT22;72517;47.260;11.422;2024-03-02T02:21:59;8.30;99.90
82782;DHT22;72517;47.260;11.422;2024-03-02T02:24:26;8.30;99.90
82782;DHT22;72517;47.260;11.422;2024-03-02T02:26:52;8.40;99.90
82782;DHT22;72517;47.260;11.422;2024-03-02T02:29:19;8.40;99.90
82782;DHT22;72517;47.260;11.422;2024-03-02T02:31:46;8.40;99.90
82782;DHT22;72517;47.260;11.422;2024-03-02T02:34:14;8.30;99.90
82782;DHT22;72517;47.260;11.422;2024-03-02T02:36:41;8.30;99.90
82782;DHT22;72517;47.260;11.422;2024-03-02T02:39:15;8.20;99.90
82782;DHT22;72517;47.260;11.422;2024-03-02T02:41:44;8.20;99.90
82782;DHT22;72517;47.260;11.422;2024-03-02T02:44:10;8.20;99.90
82782;DHT22;72517;47.260;11.422;2024-03-02T02:46:39;8.20;99.90
82782;DHT22;72517;47.260;11.422;2024-03-02T02:49:06;8.20;99.90
82782;DHT22;72517;47.260;11.422;2024-03-02T02:51:33;8.20;99.90
82782;DHT22;72517;47.260;11.422;2024-03-02T02:54:00;8.20;99.90
82782;DHT22;72517;47.260;11.422;2024-03-02T02:56:27;8.20;99.90
82782;DHT22;72517;47.260;11.422;2024-03-02T02:58:53;8.20;99.90
82782;DHT22;72517;47.260;11.422;2024-03-02T03:01:20;8.20;99.90
82782;DHT22;72517;47.260;11.422;2024-03-02T03:03:47;8.20;99.90
82782;DHT22;72517;47.260;11.422;2024-03-02T03:06:14;8.20;99.90
82782;DHT22;72517;47.260;11.422;2024-03-02T03:08:41;8.20;99.90
82782;DHT22;72517;47.260;11.422;2024-03-02T03:11:08;8.20;99.90
82782;DHT22;72517;47.260;11.422;2024-03-02T03:13:35;8.20;99.90
82782;DHT22;72517;47.260;11.422;2024-03-02T03:16:02;8.20;99.90
82782;DHT22;72517;47.260;11.422;2024-03-02T03:18:29;8.20;99.90
82782;DHT22;72517;47.260;11.422;2024-03-02T03:20:56;8.10;99.90
82782;DHT22;72517;47.260;11.422;2024-03-02T03:23:22;8.10;99.90
82782;DHT22;72517;47.260;11.422;2024-03-02T03:25:51;8.10;99.90
82782;DHT22;72517;47.260;11.422;2024-03-02T03:28:18;8.20;99.90
82782;DHT22;72517;47.260;11.422;2024-03-02T03:30:45;8.20;99.90
82782;DHT22;72517;47.260;11.422;2024-03-02T03:33:12;8.20;99.90
82782;DHT22;72517;47.260;11.422;2024-03-02T03:35:39;8.20;99.90
82782;DHT22;72517;47.260;11.422;2024-03-02T03:38:05;8.20;99.90
82782;DHT22;72517;47.260;11.422;2024-03-02T03:40:32;8.20;99.90
82782;DHT22;72517;47.260;11.422;2024-03-02T03:42:59;8.10;99.90
82782;DHT22;72517;47.260;11.422;2024-03-02T03:45:26;8.20;99.90
82782;DHT22;72517;47.260;11.422;2024-03-02T03:47:54;8.20;99.90
82782;DHT22;72517;47.260;11.422;2024-03-02T03:50:21;8.10;99.90
82782;DHT22;72517;47.260;11.422;2024-03-02T03:52:48;8.10;99.90
82782;DHT22;72517;47.260;11.422;2024-03-02T03:55:15;8.20;99.90
82782;DHT22;72517;47.260;11.422;2024-03-02T03:57:41;8.20;99.90
82782;DHT22;72517;47.260;11.422;2024-03-02T04:00:08;8.10;99.90
82782;DHT22;72517;47.260;11.422;2024-03-02T04:02:37;8.00;99.90
82782;DHT22;72517;47.260;11.422;2024-03-02T04:05:05;8.00;99.90
82782;DHT22;72517;47.260;11.422;2024-03-02T04:07:37;8.00;99.90
82782;DHT22;72517;47.260;11.422;2024-03-02T04:10:09;8.00;99.90
82782;DHT22;72517;47.260;11.422;2024-03-02T04:12:38;8.00;99.90
82782;DHT22;72517;47.260;11.422;2024-03-02T04:15:05;8.00;99.90
82782;DHT22;72517;47.260;11.422;2024-03-02T04:17:33;8.00;99.90
82782;DHT22;72517;47.260;11.422;2024-03-02T04:20:01;8.00;99.90
82782;DHT22;72517;47.260;11.422;2024-03-02T04:22:30;8.00;99.90
82782;DHT22;72517;47.260;11.422;2024-03-02T04:24:57;8.10;99.90
82782;DHT22;72517;47.260;11.422;2024-03-02T04:27:23;8.10;99.90
82782;DHT22;72517;47.260;11.422;2024-03-02T04:29:50;8.10;99.90
82782;DHT22;72517;47.260;11.422;2024-03-02T04:32:17;8.10;99.90
82782;DHT22;72517;47.260;11.422;2024-03-02T04:34:45;8.10;99.90
82782;DHT22;72517;47.260;11.422;2024-03-02T04:37:12;8.10;99.90
82782;DHT22;72517;47.260;11.422;2024-03-02T04:39:40;8.10;99.90
82782;DHT22;72517;47.260;11.422;2024-03-02T04:42:06;8.00;99.90
82782;DHT22;72517;47.260;11.422;2024-03-02T04:44:33;8.00;99.90
82782;DHT22;72517;47.260;11.422;2024-03-02T04:47:00;8.00;99.90
82782;DHT22;72517;47.260;11.422;2024-03-02T04:49:27;8.10;99.90
82782;DHT22;72517;47.260;11.422;2024-03-02T04:51:54;8.00;99.90
82782;DHT22;72517;47.260;11.422;2024-03-02T04:54:21;7.90;99.90
82782;DHT22;72517;47.260;11.422;2024-03-02T04:56:48;8.00;99.90
82782;DHT22;72517;47.260;11.422;2024-03-02T04:59:16;8.00;99.90
82782;DHT22;72517;47.260;11.422;2024-03-02T05:01:44;8.00;99.90
82782;DHT22;72517;47.260;11.422;2024-03-02T05:04:11;8.10;99.90
82782;DHT22;72517;47.260;11.422;2024-03-02T05:06:39;8.20;99.90
82782;DHT22;72517;47.260;11.422;2024-03-02T05:09:07;8.20;99.90
82782;DHT22;72517;47.260;11.422;2024-03-02T05:11:34;8.10;99.90
82782;DHT22;72517;47.260;11.422;2024-03-02T05:14:18;8.20;99.90
82782;DHT22;72517;47.260;11.422;2024-03-02T05:16:45;8.20;99.90
82782;DHT22;72517;47.260;11.422;2024-03-02T05:19:12;8.10;99.90
82782;DHT22;72517;47.260;11.422;2024-03-02T05:21:38;8.20;99.90
82782;DHT22;72517;47.260;11.422;2024-03-02T05:24:05;8.10;99.90
82782;DHT22;72517;47.260;11.422;2024-03-02T05:26:32;8.10;99.90
82782;DHT22;72517;47.260;11.422;2024-03-02T05:28:59;8.20;99.90
82782;DHT22;72517;47.260;11.422;2024-03-02T05:31:25;8.20;99.90
82782;DHT22;72517;47.260;11.422;2024-03-02T05:33:52;8.20;99.90
82782;DHT22;72517;47.260;11.422;2024-03-02T05:36:19;8.20;99.90
82782;DHT22;72517;47.260;11.422;2024-03-02T05:38:46;8.20;99.90
82782;DHT22;72517;47.260;11.422;2024-03-02T05:41:13;8.30;99.90
82782;DHT22;72517;47.260;11.422;2024-03-02T05:43:40;8.20;99.90
82782;DHT22;72517;47.260;11.422;2024-03-02T05:46:07;8.20;99.90
82782;DHT22;72517;47.260;11.422;2024-03-02T05:48:34;8.20;99.90
82782;DHT22;72517;47.260;11.422;2024-03-02T05:51:00;8.30;99.90
82782;DHT22;72517;47.260;11.422;2024-03-02T05:53:27;8.30;99.90
82782;DHT22;72517;47.260;11.422;2024-03-02T05:55:54;8.30;99.90
82782;DHT22;72517;47.260;11.422;2024-03-02T05:58:22;8.30;99.90
82782;DHT22;72517;47.260;11.422;2024-03-02T06:00:59;8.30;99.90
82782;DHT22;72517;47.260;11.422;2024-03-02T06:03:26;8.40;99.90
82782;DHT22;72517;47.260;11.422;2024-03-02T06:05:54;8.40;99.90
82782;DHT22;72517;47.260;11.422;2024-03-02T06:08:21;8.40;99.90
82782;DHT22;72517;47.260;11.422;2024-03-02T06:10:48;8.40;99.90
82782;DHT22;72517;47.260;11.422;2024-03-02T06:13:14;8.50;99.90
82782;DHT22;72517;47.260;11.422;2024-03-02T06:15:41;8.60;99.90
82782;DHT22;72517;47.260;11.422;2024-03-02T06:18:09;8.70;99.90
82782;DHT22;72517;47.260;11.422;2024-03-02T06:20:35;8.80;99.90
82782;DHT22;72517;47.260;11.422;2024-03-02T06:23:03;8.80;99.90
82782;DHT22;72517;47.260;11.422;2024-03-02T06:25:30;8.90;99.90
82782;DHT22;72517;47.260;11.422;2024-03-02T06:27:57;8.90;99.90
82782;DHT22;72517;47.260;11.422;2024-03-02T06:30:24;9.00;99.90
82782;DHT22;72517;47.260;11.422;2024-03-02T06:32:51;9.00;99.90
82782;DHT22;72517;47.260;11.422;2024-03-02T06:35:18;9.00;99.90
82782;DHT22;72517;47.260;11.422;2024-03-02T06:37:45;9.10;99.90
82782;DHT22;72517;47.260;11.422;2024-03-02T06:40:12;9.00;99.90
82782;DHT22;72517;47.260;11.422;2024-03-02T06:42:38;9.10;99.90
82782;DHT22;72517;47.260;11.422;2024-03-02T06:45:06;9.20;99.90
82782;DHT22;72517;47.260;11.422;2024-03-02T06:47:33;9.20;99.90
82782;DHT22;72517;47.260;11.422;2024-03-02T06:50:00;9.30;99.90
82782;DHT22;72517;47.260;11.422;2024-03-02T06:52:27;9.50;99.90
82782;DHT22;72517;47.260;11.422;2024-03-02T06:54:54;9.60;99.90
82782;DHT22;72517;47.260;11.422;2024-03-02T06:57:21;9.80;99.90
82782;DHT22;72517;47.260;11.422;2024-03-02T06:59:47;10.00;99.90
82782;DHT22;72517;47.260;11.422;2024-03-02T07:02:16;10.20;99.90
82782;DHT22;72517;47.260;11.422;2024-03-02T07:04:43;10.30;99.90
82782;DHT22;72517;47.260;11.422;2024-03-02T07:07:11;10.40;99.90
82782;DHT22;72517;47.260;11.422;2024-03-02T07:09:37;10.40;99.90
82782;DHT22;72517;47.260;11.422;2024-03-02T07:12:05;10.50;99.90
82782;DHT22;72517;47.260;11.422;2024-03-02T07:14:32;10.50;99.90
82782;DHT22;72517;47.260;11.422;2024-03-02T07:17:33;10.60;99.90
82782;DHT22;72517;47.260;11.422;2024-03-02T07:20:02;10.70;99.90
82782;DHT22;72517;47.260;11.422;2024-03-02T07:22:30;10.70;99.90
82782;DHT22;72517;47.260;11.422;2024-03-02T07:24:57;10.60;99.90
82782;DHT22;72517;47.260;11.422;2024-03-02T07:27:23;10.70;99.90
82782;DHT22;72517;47.260;11.422;2024-03-02T07:29:50;10.80;99.90
82782;DHT22;72517;47.260;11.422;2024-03-02T07:32:17;10.80;99.90
82782;DHT22;72517;47.260;11.422;2024-03-02T07:34:44;11.00;99.90
82782;DHT22;72517;47.260;11.422;2024-03-02T07:37:11;11.20;99.90
82782;DHT22;72517;47.260;11.422;2024-03-02T07:39:38;11.50;99.40
82782;DHT22;72517;47.260;11.422;2024-03-02T07:42:05;11.80;98.80
82782;DHT22;72517;47.260;11.422;2024-03-02T07:44:32;12.20;97.80
82782;DHT22;72517;47.260;11.422;2024-03-02T07:46:59;12.30;97.00
82782;DHT22;72517;47.260;11.422;2024-03-02T07:49:26;12.90;96.80
82782;DHT22;72517;47.260;11.422;2024-03-02T07:51:53;13.10;95.00
82782;DHT22;72517;47.260;11.422;2024-03-02T07:54:21;13.10;94.10
82782;DHT22;72517;47.260;11.422;2024-03-02T07:56:47;12.90;93.00
82782;DHT22;72517;47.260;11.422;2024-03-02T07:59:14;12.70;93.20
82782;DHT22;72517;47.260;11.422;2024-03-02T08:01:41;12.60;93.90
82782;DHT22;72517;47.260;11.422;2024-03-02T08:04:08;12.60;93.90
82782;DHT22;72517;47.260;11.422;2024-03-02T08:06:35;12.60;93.80
82782;DHT22;72517;47.260;11.422;2024-03-02T08:09:02;13.10;94.10
82782;DHT22;72517;47.260;11.422;2024-03-02T08:11:34;13.50;92.70
82782;DHT22;72517;47.260;11.422;2024-03-02T08:14:01;14.70;91.00
82782;DHT22;72517;47.260;11.422;2024-03-02T08:16:28;16.30;85.50
82782;DHT22;72517;47.260;11.422;2024-03-02T08:18:56;18.20;77.40
82782;DHT22;72517;47.260;11.422;2024-03-02T08:21:24;20.60;68.40
82782;DHT22;72517;47.260;11.422;2024-03-02T08:23:51;23.00;58.50
82782;DHT22;72517;47.260;11.422;2024-03-02T08:26:18;24.80;52.00
82782;DHT22;72517;47.260;11.422;2024-03-02T08:28:45;26.50;46.10
82782;DHT22;72517;47.260;11.422;2024-03-02T08:31:12;27.70;42.30
82782;DHT22;72517;47.260;11.422;2024-03-02T08:33:38;28.60;39.60
82782;DHT22;72517;47.260;11.422;2024-03-02T08:36:06;28.60;37.90
82782;DHT22;72517;47.260;11.422;2024-03-02T08:38:35;28.10;37.70
82782;DHT22;72517;47.260;11.422;2024-03-02T08:41:02;27.40;37.40
82782;DHT22;72517;47.260;11.422;2024-03-02T08:43:29;26.80;38.00
82782;DHT22;72517;47.260;11.422;2024-03-02T08:45:56;25.60;38.50
82782;DHT22;72517;47.260;11.422;2024-03-02T08:48:23;25.20;40.00
82782;DHT22;72517;47.260;11.422;2024-03-02T08:50:50;24.80;40.20
82782;DHT22;72517;47.260;11.422;2024-03-02T08:53:17;25.40;40.30
82782;DHT22;72517;47.260;11.422;2024-03-02T08:55:47;26.00;40.10
82782;DHT22;72517;47.260;11.422;2024-03-02T08:58:14;26.70;39.50
82782;DHT22;72517;47.260;11.422;2024-03-02T09:00:41;27.90;38.00
82782;DHT22;72517;47.260;11.422;2024-03-02T09:03:08;28.20;36.80
82782;DHT22;72517;47.260;11.422;2024-03-02T09:05:35;28.80;36.10
82782;DHT22;72517;47.260;11.422;2024-03-02T09:08:02;28.60;36.30
82782;DHT22;72517;47.260;11.422;2024-03-02T09:10:30;28.80;36.20
82782;DHT22;72517;47.260;11.422;2024-03-02T09:12:57;28.60;35.40
82782;DHT22;72517;47.260;11.422;2024-03-02T09:15:24;27.50;35.40
82782;DHT22;72517;47.260;11.422;2024-03-02T09:17:51;26.80;36.30
82782;DHT22;72517;47.260;11.422;2024-03-02T09:20:18;26.30;36.80
82782;DHT22;72517;47.260;11.422;2024-03-02T09:22:45;26.20;37.50
82782;DHT22;72517;47.260;11.422;2024-03-02T09:25:12;25.80;37.70
82782;DHT22;72517;47.260;11.422;2024-03-02T09:27:39;25.80;38.70
82782;DHT22;72517;47.260;11.422;2024-03-02T09:30:09;26.10;39.00
82782;DHT22;72517;47.260;11.422;2024-03-02T09:32:37;27.10;38.50
82782;DHT22;72517;47.260;11.422;2024-03-02T09:35:04;28.70;37.70
82782;DHT22;72517;47.260;11.422;2024-03-02T09:37:31;28.80;34.90
82782;DHT22;72517;47.260;11.422;2024-03-02T09:39:58;30.30;35.10
82782;DHT22;72517;47.260;11.422;2024-03-02T09:42:26;30.20;34.10
82782;DHT22;72517;47.260;11.422;2024-03-02T09:44:53;30.40;33.40
82782;DHT22;72517;47.260;11.422;2024-03-02T09:47:20;30.50;33.10
82782;DHT22;72517;47.260;11.422;2024-03-02T09:49:47;30.40;33.30
82782;DHT22;72517;47.260;11.422;2024-03-02T09:52:14;30.80;33.50
82782;DHT22;72517;47.260;11.422;2024-03-02T09:54:41;31.00;33.10
82782;DHT22;72517;47.260;11.422;2024-03-02T09:57:08;31.60;32.70
82782;DHT22;72517;47.260;11.422;2024-03-02T09:59:36;31.40;31.80
82782;DHT22;72517;47.260;11.422;2024-03-02T10:02:03;32.10;31.70
82782;DHT22;72517;47.260;11.422;2024-03-02T10:04:33;31.90;31.60
82782;DHT22;72517;47.260;11.422;2024-03-02T10:07:11;31.10;31.70
82782;DHT22;72517;47.260;11.422;2024-03-02T10:09:39;31.10;32.00
82782;DHT22;72517;47.260;11.422;2024-03-02T10:12:08;31.00;32.00
82782;DHT22;72517;47.260;11.422;2024-03-02T10:14:35;31.00;32.00
82782;DHT22;72517;47.260;11.422;2024-03-02T10:17:07;32.00;32.00
82782;DHT22;72517;47.260;11.422;2024-03-02T10:19:34;31.80;31.30
82782;DHT22;72517;47.260;11.422;2024-03-02T10:22:07;32.70;31.10
82782;DHT22;72517;47.260;11.422;2024-03-02T10:24:41;33.10;30.70
82782;DHT22;72517;47.260;11.422;2024-03-02T10:27:15;32.90;30.60
82782;DHT22;72517;47.260;11.422;2024-03-02T10:29:42;33.20;29.90
82782;DHT22;72517;47.260;11.422;2024-03-02T10:32:10;34.00;29.80
82782;DHT22;72517;47.260;11.422;2024-03-02T10:34:39;35.10;29.70
82782;DHT22;72517;47.260;11.422;2024-03-02T10:37:06;36.00;28.80
82782;DHT22;72517;47.260;11.422;2024-03-02T10:39:37;37.30;28.30
82782;DHT22;72517;47.260;11.422;2024-03-02T10:42:06;38.80;27.90
82782;DHT22;72517;47.260;11.422;2024-03-02T10:44:34;39.90;26.80
82782;DHT22;72517;47.260;11.422;2024-03-02T10:47:03;40.60;26.10
82782;DHT22;72517;47.260;11.422;2024-03-02T10:49:31;41.60;25.70
82782;DHT22;72517;47.260;11.422;2024-03-02T10:51:59;42.70;25.40
82782;DHT22;72517;47.260;11.422;2024-03-02T10:54:26;44.10;24.90
82782;DHT22;72517;47.260;11.422;2024-03-02T10:56:58;44.80;24.00
82782;DHT22;72517;47.260;11.422;2024-03-02T11:01:58;45.40;24.10
82782;DHT22;72517;47.260;11.422;2024-03-02T11:04:27;46.10;23.20
82782;DHT22;72517;47.260;11.422;2024-03-02T11:07:04;46.90;23.10
82782;DHT22;72517;47.260;11.422;2024-03-02T11:09:34;47.40;22.60
82782;DHT22;72517;47.260;11.422;2024-03-02T11:12:22;48.30;22.50
82782;DHT22;72517;47.260;11.422;2024-03-02T11:14:51;48.40;22.30
82782;DHT22;72517;47.260;11.422;2024-03-02T11:17:18;47.70;21.90
82782;DHT22;72517;47.260;11.422;2024-03-02T11:19:46;49.10;22.50
82782;DHT22;72517;47.260;11.422;2024-03-02T11:22:15;49.50;21.60
82782;DHT22;72517;47.260;11.422;2024-03-02T11:24:52;49.00;21.30
82782;DHT22;72517;47.260;11.422;2024-03-02T11:33:00;49.10;21.00
82782;DHT22;72517;47.260;11.422;2024-03-02T11:35:32;49.50;20.60
82782;DHT22;72517;47.260;11.422;2024-03-02T11:38:01;50.00;19.70
82782;DHT22;72517;47.260;11.422;2024-03-02T11:40:29;47.60;20.30
82782;DHT22;72517;47.260;11.422;2024-03-02T11:42:59;48.40;20.90
82782;DHT22;72517;47.260;11.422;2024-03-02T11:45:26;50.00;20.60
82782;DHT22;72517;47.260;11.422;2024-03-02T11:47:54;48.00;18.40
82782;DHT22;72517;47.260;11.422;2024-03-02T11:50:34;44.70;20.30
82782;DHT22;72517;47.260;11.422;2024-03-02T11:53:05;45.40;20.40
82782;DHT22;72517;47.260;11.422;2024-03-02T11:55:35;46.90;20.10
82782;DHT22;72517;47.260;11.422;2024-03-02T11:58:07;48.90;19.40
82782;DHT22;72517;47.260;11.422;2024-03-02T12:00:34;47.40;18.30
82782;DHT22;72517;47.260;11.422;2024-03-02T12:03:05;43.70;17.70
82782;DHT22;72517;47.260;11.422;2024-03-02T12:05:34;43.40;18.60
82782;DHT22;72517;47.260;11.422;2024-03-02T12:08:02;43.60;18.60
82782;DHT22;72517;47.260;11.422;2024-03-02T12:10:29;43.30;18.70
82782;DHT22;72517;47.260;11.422;2024-03-02T12:13:00;43.90;18.00
82782;DHT22;72517;47.260;11.422;2024-03-02T12:15:29;43.10;18.30
82782;DHT22;72517;47.260;11.422;2024-03-02T12:17:57;44.90;18.40
82782;DHT22;72517;47.260;11.422;2024-03-02T12:20:26;43.30;18.10
82782;DHT22;72517;47.260;11.422;2024-03-02T12:22:55;40.60;18.70
82782;DHT22;72517;47.260;11.422;2024-03-02T12:25:23;41.60;18.60
82782;DHT22;72517;47.260;11.422;2024-03-02T12:27:53;42.30;18.70
82782;DHT22;72517;47.260;11.422;2024-03-02T12:30:21;41.60;18.60
82782;DHT22;72517;47.260;11.422;2024-03-02T12:32:48;40.70;18.20
82782;DHT22;72517;47.260;11.422;2024-03-02T12:35:15;39.30;18.90
82782;DHT22;72517;47.260;11.422;2024-03-02T12:37:46;38.50;19.30
82782;DHT22;72517;47.260;11.422;2024-03-02T12:40:16;40.00;18.80
82782;DHT22;72517;47.260;11.422;2024-03-02T12:42:45;42.20;18.80
82782;DHT22;72517;47.260;11.422;2024-03-02T12:45:12;42.50;18.90
82782;DHT22;72517;47.260;11.422;2024-03-02T12:47:41;41.60;18.30
82782;DHT22;72517;47.260;11.422;2024-03-02T12:50:10;41.50;18.40
82782;DHT22;72517;47.260;11.422;2024-03-02T12:52:37;42.80;18.80
82782;DHT22;72517;47.260;11.422;2024-03-02T12:55:05;43.30;18.50
82782;DHT22;72517;47.260;11.422;2024-03-02T12:57:32;44.30;18.70
82782;DHT22;72517;47.260;11.422;2024-03-02T13:00:04;44.90;18.00
82782;DHT22;72517;47.260;11.422;2024-03-02T13:02:35;46.40;17.70
82782;DHT22;72517;47.260;11.422;2024-03-02T13:05:03;44.60;17.40
82782;DHT22;72517;47.260;11.422;2024-03-02T13:07:30;41.50;18.40
82782;DHT22;72517;47.260;11.422;2024-03-02T13:09:59;40.50;18.20
82782;DHT22;72517;47.260;11.422;2024-03-02T13:12:26;40.20;18.50
82782;DHT22;72517;47.260;11.422;2024-03-02T13:14:53;38.30;19.00
82782;DHT22;72517;47.260;11.422;2024-03-02T13:17:20;36.30;19.50
82782;DHT22;72517;47.260;11.422;2024-03-02T13:20:05;36.10;19.60
82782;DHT22;72517;47.260;11.422;2024-03-02T13:22:35;34.90;19.60
82782;DHT22;72517;47.260;11.422;2024-03-02T13:25:03;34.00;19.70
82782;DHT22;72517;47.260;11.422;2024-03-02T13:27:31;33.00;20.50
82782;DHT22;72517;47.260;11.422;2024-03-02T13:29:58;34.70;20.40
82782;DHT22;72517;47.260;11.422;2024-03-02T13:32:25;33.70;20.00
82782;DHT22;72517;47.260;11.422;2024-03-02T13:34:52;33.20;19.70
82782;DHT22;72517;47.260;11.422;2024-03-02T13:37:20;32.60;19.70
82782;DHT22;72517;47.260;11.422;2024-03-02T13:39:47;31.30;20.50
82782;DHT22;72517;47.260;11.422;2024-03-02T13:42:15;30.90;20.50
82782;DHT22;72517;47.260;11.422;2024-03-02T13:44:45;30.10;21.00
82782;DHT22;72517;47.260;11.422;2024-03-02T13:47:13;31.30;20.80
82782;DHT22;72517;47.260;11.422;2024-03-02T13:49:40;31.10;20.30
82782;DHT22;72517;47.260;11.422;2024-03-02T13:52:10;30.50;20.90
82782;DHT22;72517;47.260;11.422;2024-03-02T13:54:42;30.30;20.40
82782;DHT22;72517;47.260;11.422;2024-03-02T13:57:10;26.90;21.30
82782;DHT22;72517;47.260;11.422;2024-03-02T13:59:38;24.40;23.00
82782;DHT22;72517;47.260;11.422;2024-03-02T14:02:05;22.90;23.90
82782;DHT22;72517;47.260;11.422;2024-03-02T14:04:36;22.30;24.60
82782;DHT22;72517;47.260;11.422;2024-03-02T14:07:04;21.40;25.00
82782;DHT22;72517;47.260;11.422;2024-03-02T14:09:32;20.20;26.00
82782;DHT22;72517;47.260;11.422;2024-03-02T14:11:59;19.50;26.40
82782;DHT22;72517;47.260;11.422;2024-03-02T14:14:27;19.00;26.70
82782;DHT22;72517;47.260;11.422;2024-03-02T14:16:57;18.70;27.30
82782;DHT22;72517;47.260;11.422;2024-03-02T14:19:26;18.60;27.60
82782;DHT22;72517;47.260;11.422;2024-03-02T14:21:53;18.40;27.30
82782;DHT22;72517;47.260;11.422;2024-03-02T14:24:20;18.40;27.10
82782;DHT22;72517;47.260;11.422;2024-03-02T14:26:49;18.20;27.30
82782;DHT22;72517;47.260;11.422;2024-03-02T14:29:16;17.90;27.40
82782;DHT22;72517;47.260;11.422;2024-03-02T14:31:43;17.90;27.80
82782;DHT22;72517;47.260;11.422;2024-03-02T14:34:14;18.00;28.30
82782;DHT22;72517;47.260;11.422;2024-03-02T14:36:41;17.90;28.00
82782;DHT22;72517;47.260;11.422;2024-03-02T14:39:10;17.60;28.20
82782;DHT22;72517;47.260;11.422;2024-03-02T14:41:37;17.60;28.20
82782;DHT22;72517;47.260;11.422;2024-03-02T14:44:04;17.50;28.20
82782;DHT22;72517;47.260;11.422;2024-03-02T14:46:31;17.30;28.50
82782;DHT22;72517;47.260;11.422;2024-03-02T14:48:59;17.40;29.00
82782;DHT22;72517;47.260;11.422;2024-03-02T14:51:26;17.50;28.70
82782;DHT22;72517;47.260;11.422;2024-03-02T14:53:55;17.30;28.00
82782;DHT22;72517;47.260;11.422;2024-03-02T14:56:22;17.00;28.10
82782;DHT22;72517;47.260;11.422;2024-03-02T14:58:49;16.80;28.70
82782;DHT22;72517;47.260;11.422;2024-03-02T15:01:16;16.80;28.90
82782;DHT22;72517;47.260;11.422;2024-03-02T15:03:46;16.70;29.00
82782;DHT22;72517;47.260;11.422;2024-03-02T15:06:14;16.80;29.30
82782;DHT22;72517;47.260;11.422;2024-03-02T15:08:41;16.60;29.20
82782;DHT22;72517;47.260;11.422;2024-03-02T15:11:08;16.50;29.60
82782;DHT22;72517;47.260;11.422;2024-03-02T15:13:36;16.40;30.00
82782;DHT22;72517;47.260;11.422;2024-03-02T15:16:03;16.50;29.60
82782;DHT22;72517;47.260;11.422;2024-03-02T15:18:30;16.40;29.60
82782;DHT22;72517;47.260;11.422;2024-03-02T15:20:57;16.30;29.80
82782;DHT22;72517;47.260;11.422;2024-03-02T15:23:24;16.40;30.30
82782;DHT22;72517;47.260;11.422;2024-03-02T15:25:51;16.40;29.80
82782;DHT22;72517;47.260;11.422;2024-03-02T15:28:18;16.40;29.90
82782;DHT22;72517;47.260;11.422;2024-03-02T15:30:45;16.20;30.30
82782;DHT22;72517;47.260;11.422;2024-03-02T15:33:12;16.10;30.40
82782;DHT22;72517;47.260;11.422;2024-03-02T15:35:38;16.00;30.70
82782;DHT22;72517;47.260;11.422;2024-03-02T15:38:05;16.00;30.30
82782;DHT22;72517;47.260;11.422;2024-03-02T15:40:34;15.90;30.20
82782;DHT22;72517;47.260;11.422;2024-03-02T15:43:01;16.00;30.70